createdAt,value
2022-12-24T00:00:14.568Z,10.50
2022-12-24T00:02:41.983Z,10.50
2022-12-24T00:05:10.851Z,10.60
2022-12-24T00:07:37.977Z,10.60
2022-12-24T00:10:06.215Z,10.60
2022-12-24T00:12:33.330Z,10.70
2022-12-24T00:15:00.466Z,10.70
2022-12-24T00:17:27.932Z,10.70
2022-12-24T00:19:55.065Z,10.70
2022-12-24T00:22:22.138Z,10.70
2022-12-24T00:24:49.528Z,10.70
2022-12-24T00:27:16.903Z,10.70
2022-12-24T00:29:43.961Z,10.80
2022-12-24T00:32:11.356Z,10.70
2022-12-24T00:34:38.546Z,10.70
2022-12-24T00:37:06.931Z,10.60
2022-12-24T00:39:34.000Z,10.60
2022-12-24T00:42:01.061Z,10.50
2022-12-24T00:44:28.065Z,10.60
2022-12-24T00:46:55.618Z,10.60
2022-12-24T00:49:23.430Z,10.70
2022-12-24T00:51:50.680Z,10.70
2022-12-24T00:54:17.666Z,10.80
2022-12-24T00:56:44.883Z,10.80
2022-12-24T00:59:11.987Z,10.80
2022-12-24T01:01:39.747Z,10.80
2022-12-24T01:04:25.753Z,10.80
2022-12-24T01:06:53.010Z,10.80
2022-12-24T01:09:19.984Z,10.70
2022-12-24T01:11:47.041Z,10.70
2022-12-24T01:14:14.097Z,10.60
2022-12-24T01:16:41.295Z,10.70
2022-12-24T01:19:08.413Z,10.70
2022-12-24T01:21:35.625Z,10.70
2022-12-24T01:24:02.815Z,10.70
2022-12-24T01:26:29.908Z,10.70
2022-12-24T01:28:57.738Z,10.70
2022-12-24T01:31:24.865Z,10.70
2022-12-24T01:33:52.032Z,10.70
2022-12-24T01:36:19.035Z,10.70
2022-12-24T01:38:46.279Z,10.70
2022-12-24T01:41:41.629Z,10.70
2022-12-24T01:44:36.936Z,10.70
2022-12-24T01:47:11.167Z,10.70
2022-12-24T01:49:41.511Z,10.60
2022-12-24T01:52:17.148Z,10.60
2022-12-24T01:54:49.698Z,10.60
2022-12-24T01:57:22.675Z,10.60
2022-12-24T01:59:55.591Z,10.60
2022-12-24T02:02:23.970Z,10.60
2022-12-24T02:04:56.970Z,10.60
2022-12-24T02:07:24.601Z,10.60
2022-12-24T02:09:57.087Z,10.60
2022-12-24T02:12:25.904Z,10.50
2022-12-24T02:14:54.289Z,10.50
2022-12-24T02:17:47.718Z,10.60
2022-12-24T02:20:32.646Z,10.50
2022-12-24T02:23:11.803Z,10.50
2022-12-24T02:25:56.940Z,10.50
2022-12-24T02:28:44.056Z,10.40
2022-12-24T02:31:26.160Z,10.40
2022-12-24T02:34:12.857Z,10.40
2022-12-24T02:37:05.477Z,10.20
2022-12-24T02:39:55.746Z,10.30
2022-12-24T02:42:27.755Z,10.20
2022-12-24T02:45:10.027Z,10.20
2022-12-24T02:47:38.161Z,10.20
2022-12-24T02:50:08.124Z,10.10
2022-12-24T02:52:41.717Z,10.10
2022-12-24T02:55:19.416Z,10.10
2022-12-24T02:58:10.426Z,10.00
2022-12-24T03:00:56.255Z,10.00
2022-12-24T03:03:36.840Z,9.90
2022-12-24T03:06:28.195Z,9.90
2022-12-24T03:09:02.135Z,9.90
2022-12-24T03:11:29.558Z,9.80
2022-12-24T03:13:59.984Z,9.80
2022-12-24T03:16:28.086Z,9.70
2022-12-24T03:18:57.047Z,9.60
2022-12-24T03:21:40.235Z,9.60
2022-12-24T03:24:07.555Z,9.50
2022-12-24T03:26:34.885Z,9.50
2022-12-24T03:29:08.374Z,9.50
2022-12-24T03:31:43.564Z,9.50
2022-12-24T03:34:11.672Z,9.50
2022-12-24T03:36:38.931Z,9.50
2022-12-24T03:39:06.930Z,9.60
2022-12-24T03:41:33.984Z,9.70
2022-12-24T03:44:01.204Z,9.70
2022-12-24T03:46:28.664Z,9.80
2022-12-24T03:48:55.860Z,9.70
2022-12-24T03:51:24.733Z,9.70
2022-12-24T03:53:56.169Z,9.80
2022-12-24T03:56:23.952Z,9.80
2022-12-24T03:58:51.275Z,9.80
2022-12-24T04:01:18.772Z,9.90
2022-12-24T04:03:46.433Z,9.90
2022-12-24T04:06:17.671Z,10.00
2022-12-24T04:08:45.011Z,9.90
2022-12-24T04:11:14.441Z,9.90
2022-12-24T04:13:41.636Z,9.80
2022-12-24T04:16:11.673Z,9.70
2022-12-24T04:18:40.103Z,9.60
2022-12-24T04:21:08.894Z,9.60
2022-12-24T04:23:38.458Z,9.60
2022-12-24T04:26:07.734Z,9.70
2022-12-24T04:28:36.198Z,9.70
2022-12-24T04:31:05.949Z,9.60
2022-12-24T04:33:33.405Z,9.60
2022-12-24T04:36:02.210Z,9.70
2022-12-24T04:38:30.414Z,9.70
2022-12-24T04:41:02.051Z,9.70
2022-12-24T04:43:29.882Z,9.70
2022-12-24T04:45:57.513Z,9.60
2022-12-24T04:48:24.729Z,9.50
2022-12-24T04:50:52.381Z,9.70
2022-12-24T04:53:19.466Z,9.80
2022-12-24T04:55:47.089Z,9.80
2022-12-24T04:58:14.482Z,9.90
2022-12-24T05:00:41.778Z,9.90
2022-12-24T05:03:09.488Z,9.90
2022-12-24T05:05:36.667Z,9.80
2022-12-24T05:08:04.172Z,9.80
2022-12-24T05:10:31.377Z,9.80
2022-12-24T05:12:58.579Z,9.80
2022-12-24T05:15:26.119Z,9.70
2022-12-24T05:17:53.147Z,9.80
2022-12-24T05:20:20.671Z,9.90
2022-12-24T05:23:06.314Z,9.80
2022-12-24T05:25:56.171Z,9.90
2022-12-24T05:28:23.696Z,10.00
2022-12-24T05:30:51.184Z,10.00
2022-12-24T05:33:18.276Z,10.10
2022-12-24T05:35:45.381Z,10.10
2022-12-24T05:38:12.398Z,10.20
2022-12-24T05:40:39.506Z,10.20
2022-12-24T05:43:06.662Z,10.20
2022-12-24T05:45:33.633Z,10.20
2022-12-24T05:48:00.756Z,10.10
2022-12-24T05:50:27.797Z,10.10
2022-12-24T05:52:54.952Z,10.00
2022-12-24T05:55:22.049Z,10.00
2022-12-24T05:57:49.086Z,9.90
2022-12-24T06:00:16.454Z,9.90
2022-12-24T06:02:43.735Z,9.90
2022-12-24T06:05:10.937Z,9.90
2022-12-24T06:07:38.424Z,9.90
2022-12-24T06:10:06.579Z,9.90
2022-12-24T06:12:33.765Z,9.80
2022-12-24T06:15:00.901Z,9.80
2022-12-24T06:17:27.988Z,9.80
2022-12-24T06:19:55.275Z,9.80
2022-12-24T06:22:22.426Z,9.80
2022-12-24T06:24:49.447Z,9.70
2022-12-24T06:27:16.557Z,9.70
2022-12-24T06:29:43.717Z,9.70
2022-12-24T06:32:10.980Z,9.70
2022-12-24T06:34:38.143Z,9.60
2022-12-24T06:37:05.806Z,9.60
2022-12-24T06:39:33.029Z,9.60
2022-12-24T06:42:00.131Z,9.50
2022-12-24T06:44:27.300Z,9.50
2022-12-24T06:46:54.771Z,9.50
2022-12-24T06:49:21.889Z,9.50
2022-12-24T06:51:49.193Z,9.60
2022-12-24T06:54:16.311Z,9.50
2022-12-24T06:56:43.477Z,9.50
2022-12-24T06:59:10.551Z,9.50
2022-12-24T07:01:37.669Z,9.50
2022-12-24T07:04:05.017Z,9.40
2022-12-24T07:06:32.509Z,9.30
2022-12-24T07:08:59.600Z,9.30
2022-12-24T07:11:26.996Z,9.30
2022-12-24T07:13:54.059Z,9.40
2022-12-24T07:16:21.787Z,9.40
2022-12-24T07:18:49.224Z,9.40
2022-12-24T07:21:16.349Z,9.30
2022-12-24T07:23:43.584Z,9.40
2022-12-24T07:26:11.051Z,9.30
2022-12-24T07:28:38.072Z,9.20
2022-12-24T07:31:05.248Z,9.20
2022-12-24T07:33:32.503Z,9.00
2022-12-24T07:36:02.264Z,9.00
2022-12-24T07:38:30.250Z,9.20
2022-12-24T07:40:58.110Z,9.20
2022-12-24T07:43:26.732Z,9.20
2022-12-24T07:45:58.451Z,9.20
2022-12-24T07:48:27.141Z,9.10
2022-12-24T07:50:54.653Z,9.20
2022-12-24T07:53:21.986Z,9.10
2022-12-24T07:55:49.527Z,9.10
2022-12-24T07:58:16.661Z,9.20
2022-12-24T08:00:44.014Z,9.20
2022-12-24T08:03:20.124Z,9.20
2022-12-24T08:05:47.826Z,9.20
2022-12-24T08:08:15.315Z,9.20
2022-12-24T08:10:44.869Z,9.20
2022-12-24T08:13:12.454Z,9.10
2022-12-24T08:15:39.525Z,9.10
2022-12-24T08:18:06.605Z,9.10
2022-12-24T08:20:33.715Z,9.10
2022-12-24T08:23:00.797Z,9.20
2022-12-24T08:25:28.035Z,9.20
2022-12-24T08:27:55.087Z,9.30
2022-12-24T08:30:22.184Z,9.30
2022-12-24T08:32:49.574Z,9.30
2022-12-24T08:35:17.434Z,9.30
2022-12-24T08:37:44.510Z,9.30
2022-12-24T08:40:11.988Z,9.30
2022-12-24T08:42:39.432Z,9.30
2022-12-24T08:45:07.533Z,9.30
2022-12-24T08:47:34.923Z,9.30
2022-12-24T08:50:02.023Z,9.40
2022-12-24T08:52:29.203Z,9.40
2022-12-24T08:54:56.269Z,9.40
2022-12-24T08:57:23.276Z,9.50
2022-12-24T08:59:50.379Z,9.60
2022-12-24T09:02:17.684Z,9.60
2022-12-24T09:04:45.059Z,9.70
2022-12-24T09:07:12.304Z,9.70
2022-12-24T09:09:39.399Z,9.80
2022-12-24T09:12:07.599Z,9.80
2022-12-24T09:14:34.867Z,9.90
2022-12-24T09:17:02.039Z,9.90
2022-12-24T09:19:29.292Z,10.00
2022-12-24T09:21:56.263Z,10.10
2022-12-24T09:24:23.509Z,10.20
2022-12-24T09:26:57.357Z,10.20
2022-12-24T09:29:25.524Z,10.20
2022-12-24T09:31:52.642Z,10.40
2022-12-24T09:34:22.700Z,10.30
2022-12-24T09:36:54.408Z,10.40
2022-12-24T09:39:21.569Z,10.40
2022-12-24T09:42:03.263Z,10.50
2022-12-24T09:44:49.299Z,10.60
2022-12-24T09:47:33.448Z,10.60
2022-12-24T09:50:05.102Z,10.60
2022-12-24T09:52:41.422Z,10.60
2022-12-24T09:55:32.620Z,10.70
2022-12-24T09:58:02.321Z,10.80
2022-12-24T10:00:33.417Z,10.90
2022-12-24T10:03:01.033Z,10.80
2022-12-24T10:05:44.275Z,10.80
2022-12-24T10:08:27.351Z,10.80
2022-12-24T10:11:00.801Z,11.00
2022-12-24T10:13:45.089Z,11.10
2022-12-24T10:16:45.229Z,11.30
2022-12-24T10:19:30.697Z,11.60
2022-12-24T10:22:26.611Z,11.80
2022-12-24T10:25:18.140Z,12.00
2022-12-24T10:27:45.985Z,12.10
2022-12-24T10:30:22.765Z,12.20
2022-12-24T10:32:54.778Z,12.10
2022-12-24T10:35:40.611Z,12.20
2022-12-24T10:38:09.327Z,12.10
2022-12-24T10:40:59.160Z,12.10
2022-12-24T10:43:28.593Z,12.20
2022-12-24T10:45:59.573Z,12.10
2022-12-24T10:48:32.500Z,12.00
2022-12-24T10:51:14.885Z,12.00
2022-12-24T10:53:52.207Z,12.00
2022-12-24T10:56:21.078Z,12.00
2022-12-24T10:58:55.660Z,11.90
2022-12-24T11:01:47.138Z,11.90
2022-12-24T11:04:18.421Z,11.90
2022-12-24T11:07:01.065Z,12.00
2022-12-24T11:09:43.443Z,12.00
2022-12-24T11:12:21.651Z,12.00
2022-12-24T11:14:50.278Z,12.00
2022-12-24T11:17:23.247Z,12.00
2022-12-24T11:19:50.941Z,12.00
2022-12-24T11:22:22.911Z,12.10
2022-12-24T11:24:58.432Z,12.10
2022-12-24T11:27:39.148Z,12.10
2022-12-24T11:30:23.377Z,12.10
2022-12-24T11:33:17.624Z,12.20
2022-12-24T11:35:49.834Z,12.20
2022-12-24T11:38:27.591Z,12.40
2022-12-24T11:41:11.351Z,12.50
2022-12-24T11:43:44.799Z,12.60
2022-12-24T11:46:34.869Z,12.60
2022-12-24T11:49:26.812Z,12.80
2022-12-24T11:52:12.447Z,12.90
2022-12-24T11:55:16.707Z,13.10
2022-12-24T11:58:00.709Z,13.30
2022-12-24T12:00:28.616Z,13.20
2022-12-24T12:02:59.308Z,13.20
2022-12-24T12:05:33.539Z,13.10
2022-12-24T12:08:20.537Z,13.10
2022-12-24T12:10:49.977Z,13.10
2022-12-24T12:13:23.448Z,13.20
2022-12-24T12:16:11.203Z,13.30
2022-12-24T12:18:47.264Z,13.40
2022-12-24T12:21:19.420Z,13.50
2022-12-24T12:23:52.283Z,13.60
2022-12-24T12:26:28.468Z,13.60
2022-12-24T12:29:18.716Z,13.60
2022-12-24T12:31:49.792Z,13.50
2022-12-24T12:34:40.753Z,13.40
2022-12-24T12:37:31.088Z,13.30
2022-12-24T12:39:58.199Z,13.40
2022-12-24T12:42:30.838Z,13.50
2022-12-24T12:45:08.128Z,13.50
2022-12-24T12:48:03.470Z,13.50
2022-12-24T12:50:49.650Z,13.40
2022-12-24T12:53:42.057Z,13.40
2022-12-24T12:56:30.568Z,13.30
2022-12-24T12:59:03.992Z,13.10
2022-12-24T13:01:47.130Z,13.00
2022-12-24T13:04:47.619Z,12.80
2022-12-24T13:07:38.000Z,12.70
2022-12-24T13:10:15.261Z,12.60
2022-12-24T13:13:01.115Z,12.60
2022-12-24T13:16:05.324Z,12.60
2022-12-24T13:18:51.474Z,12.60
2022-12-24T13:21:22.887Z,12.50
2022-12-24T13:23:50.785Z,12.40
2022-12-24T13:26:19.612Z,12.40
2022-12-24T13:28:46.650Z,12.40
2022-12-24T13:31:20.123Z,12.40
2022-12-24T13:33:50.124Z,12.30
2022-12-24T13:36:19.504Z,12.40
2022-12-24T13:38:48.284Z,12.40
2022-12-24T13:41:38.633Z,12.40
2022-12-24T13:44:07.588Z,12.40
2022-12-24T13:46:47.998Z,12.40
2022-12-24T13:49:26.002Z,12.30
2022-12-24T13:52:11.422Z,12.20
2022-12-24T13:54:55.529Z,12.20
2022-12-24T13:57:45.231Z,12.10
2022-12-24T14:00:21.309Z,12.20
2022-12-24T14:02:57.568Z,12.20
2022-12-24T14:05:43.235Z,12.20
2022-12-24T14:08:28.003Z,12.20
2022-12-24T14:11:03.803Z,12.20
2022-12-24T14:13:39.981Z,12.30
2022-12-24T14:16:21.691Z,12.20
2022-12-24T14:19:10.160Z,12.20
2022-12-24T14:21:44.066Z,12.30
2022-12-24T14:24:36.054Z,12.30
2022-12-24T14:27:39.939Z,12.30
2022-12-24T14:30:20.322Z,12.30
2022-12-24T14:32:48.915Z,12.20
2022-12-24T14:35:21.841Z,12.20
2022-12-24T14:38:02.000Z,12.10
2022-12-24T14:40:41.892Z,12.10
2022-12-24T14:43:46.910Z,12.00
2022-12-24T14:47:03.059Z,11.90
2022-12-24T14:49:49.019Z,11.90
2022-12-24T14:53:03.409Z,11.90
2022-12-24T14:55:31.323Z,11.90
2022-12-24T14:58:25.069Z,11.80
2022-12-24T15:00:54.602Z,11.80
2022-12-24T15:03:25.055Z,11.70
2022-12-24T15:05:59.116Z,11.70
2022-12-24T15:08:33.535Z,11.60
2022-12-24T15:11:03.765Z,11.60
2022-12-24T15:13:45.318Z,11.50
2022-12-24T15:16:18.655Z,11.50
2022-12-24T15:18:51.941Z,11.40
2022-12-24T15:21:25.434Z,11.30
2022-12-24T15:23:53.170Z,11.30
2022-12-24T15:26:29.565Z,11.30
2022-12-24T15:29:03.372Z,11.30
2022-12-24T15:31:31.556Z,11.30
2022-12-24T15:34:01.802Z,11.20
2022-12-24T15:36:35.304Z,11.20
2022-12-24T15:39:06.482Z,11.20
2022-12-24T15:42:00.195Z,11.10
2022-12-24T15:44:35.477Z,11.00
2022-12-24T15:47:04.970Z,11.00
2022-12-24T15:49:33.298Z,10.90
2022-12-24T15:52:05.757Z,10.80
2022-12-24T15:54:32.911Z,10.90
2022-12-24T15:56:59.938Z,10.90
2022-12-24T15:59:38.497Z,10.90
2022-12-24T16:02:33.364Z,10.90
2022-12-24T16:05:19.562Z,10.90
2022-12-24T16:08:07.454Z,10.80
2022-12-24T16:10:40.599Z,10.80
2022-12-24T16:13:23.928Z,10.70
2022-12-24T16:15:59.000Z,10.70
2022-12-24T16:18:31.600Z,10.60
2022-12-24T16:20:58.836Z,10.50
2022-12-24T16:23:32.803Z,10.40
2022-12-24T16:25:59.868Z,10.40
2022-12-24T16:28:27.026Z,10.40
2022-12-24T16:30:56.400Z,10.30
2022-12-24T16:33:24.155Z,10.30
2022-12-24T16:35:51.351Z,10.20
2022-12-24T16:38:18.463Z,10.20
2022-12-24T16:40:45.836Z,10.20
2022-12-24T16:43:31.540Z,10.20
2022-12-24T16:46:08.207Z,10.10
2022-12-24T16:48:37.067Z,10.20
2022-12-24T16:51:04.155Z,10.10
2022-12-24T16:53:31.205Z,10.10
2022-12-24T16:55:58.524Z,10.10
2022-12-24T16:58:25.718Z,10.00
2022-12-24T17:00:53.636Z,10.00
2022-12-24T17:03:21.085Z,9.90
2022-12-24T17:05:48.476Z,10.00
2022-12-24T17:08:15.771Z,9.90
2022-12-24T17:10:51.050Z,10.00
2022-12-24T17:13:18.068Z,10.00
2022-12-24T17:15:45.327Z,10.00
2022-12-24T17:18:12.597Z,10.00
2022-12-24T17:20:40.697Z,10.10
2022-12-24T17:23:07.832Z,10.20
2022-12-24T17:25:36.319Z,10.10
2022-12-24T17:28:03.470Z,10.10
2022-12-24T17:30:30.530Z,10.10
2022-12-24T17:32:57.641Z,10.10
2022-12-24T17:35:24.618Z,10.10
2022-12-24T17:37:51.750Z,10.10
2022-12-24T17:40:18.786Z,10.00
2022-12-24T17:42:45.752Z,10.00
2022-12-24T17:45:12.773Z,10.00
2022-12-24T17:47:39.736Z,10.00
2022-12-24T17:50:07.359Z,10.00
2022-12-24T17:52:34.823Z,10.00
2022-12-24T17:55:01.885Z,10.10
2022-12-24T17:57:28.938Z,10.00
2022-12-24T17:59:57.426Z,10.00
2022-12-24T18:02:24.674Z,10.00
2022-12-24T18:04:52.244Z,9.90
2022-12-24T18:07:19.339Z,9.90
2022-12-24T18:09:46.419Z,9.80
2022-12-24T18:12:13.865Z,9.80
2022-12-24T18:14:40.932Z,9.80
2022-12-24T18:17:08.525Z,9.70
2022-12-24T18:19:35.558Z,9.70
2022-12-24T18:22:02.748Z,9.70
2022-12-24T18:24:29.705Z,9.70
2022-12-24T18:26:57.212Z,9.70
2022-12-24T18:29:24.497Z,9.70
2022-12-24T18:31:51.949Z,9.60
2022-12-24T18:34:19.301Z,9.60
2022-12-24T18:36:52.883Z,9.60
2022-12-24T18:39:22.021Z,9.60
2022-12-24T18:41:49.631Z,9.50
2022-12-24T18:44:20.918Z,9.40
2022-12-24T18:46:51.634Z,9.40
2022-12-24T18:49:18.991Z,9.40
2022-12-24T18:51:46.538Z,9.40
2022-12-24T18:54:13.569Z,9.50
2022-12-24T18:56:40.585Z,9.40
2022-12-24T18:59:07.935Z,9.40
2022-12-24T19:01:35.622Z,9.40
2022-12-24T19:04:03.313Z,9.40
2022-12-24T19:06:30.396Z,9.40
2022-12-24T19:08:59.685Z,9.50
2022-12-24T19:11:29.249Z,9.50
2022-12-24T19:13:58.237Z,9.40
2022-12-24T19:16:26.489Z,9.40
2022-12-24T19:18:54.896Z,9.40
2022-12-24T19:21:22.166Z,9.40
2022-12-24T19:23:49.269Z,9.40
2022-12-24T19:26:18.551Z,9.50
2022-12-24T19:28:46.171Z,9.30
2022-12-24T19:31:21.739Z,9.20
2022-12-24T19:33:51.571Z,9.30
2022-12-24T19:36:21.469Z,9.30
2022-12-24T19:38:48.642Z,9.30
2022-12-24T19:41:18.596Z,9.20
2022-12-24T19:43:48.071Z,9.30
2022-12-24T19:46:18.939Z,9.30
2022-12-24T19:48:50.489Z,9.30
2022-12-24T19:51:18.672Z,9.20
2022-12-24T19:53:46.451Z,9.30
2022-12-24T19:56:20.940Z,9.30
2022-12-24T19:58:48.992Z,9.30
2022-12-24T20:01:23.694Z,9.50
2022-12-24T20:03:52.604Z,9.50
2022-12-24T20:06:24.397Z,9.50
2022-12-24T20:08:51.605Z,9.50
2022-12-24T20:11:20.761Z,9.60
2022-12-24T20:13:48.364Z,9.60
2022-12-24T20:16:20.569Z,9.80
2022-12-24T20:18:52.370Z,9.60
2022-12-24T20:21:19.330Z,9.60
2022-12-24T20:23:46.704Z,9.60
2022-12-24T20:26:15.653Z,9.50
2022-12-24T20:28:43.295Z,9.40
2022-12-24T20:31:15.874Z,9.40
2022-12-24T20:33:44.521Z,9.40
2022-12-24T20:36:13.146Z,9.30
2022-12-24T20:38:40.413Z,9.30
2022-12-24T20:41:09.804Z,9.30
2022-12-24T20:43:47.094Z,9.20
2022-12-24T20:46:17.141Z,9.20
2022-12-24T20:48:44.593Z,9.20
2022-12-24T20:51:22.841Z,9.20
2022-12-24T20:53:52.648Z,9.10
2022-12-24T20:56:19.997Z,9.10
2022-12-24T20:58:46.981Z,9.20
2022-12-24T21:01:24.596Z,9.20
2022-12-24T21:03:53.775Z,9.20
2022-12-24T21:06:21.699Z,9.30
2022-12-24T21:08:50.338Z,9.30
2022-12-24T21:11:35.751Z,9.20
2022-12-24T21:14:03.095Z,9.30
2022-12-24T21:16:31.983Z,9.20
2022-12-24T21:18:59.451Z,9.20
2022-12-24T21:21:26.714Z,9.20
2022-12-24T21:23:54.482Z,9.20
2022-12-24T21:26:21.486Z,9.20
2022-12-24T21:28:49.183Z,9.30
2022-12-24T21:31:17.078Z,9.30
2022-12-24T21:33:44.201Z,9.20
2022-12-24T21:36:13.162Z,9.10
2022-12-24T21:38:41.125Z,9.10
2022-12-24T21:41:14.079Z,9.00
2022-12-24T21:43:42.037Z,8.90
2022-12-24T21:46:11.433Z,8.80
2022-12-24T21:48:57.491Z,8.80
2022-12-24T21:51:26.430Z,8.70
2022-12-24T21:54:12.314Z,8.70
2022-12-24T21:56:57.821Z,8.60
2022-12-24T21:59:27.098Z,8.60
2022-12-24T22:01:55.820Z,8.60
2022-12-24T22:04:23.410Z,8.60
2022-12-24T22:07:09.192Z,8.60
2022-12-24T22:09:56.957Z,8.60
2022-12-24T22:12:24.215Z,8.70
2022-12-24T22:14:51.364Z,8.60
2022-12-24T22:17:24.664Z,8.60
2022-12-24T22:19:52.698Z,8.50
2022-12-24T22:22:19.673Z,8.60
2022-12-24T22:24:46.747Z,8.60
2022-12-24T22:27:14.051Z,8.60
2022-12-24T22:29:41.148Z,8.60
2022-12-24T22:32:08.133Z,8.60
2022-12-24T22:34:36.193Z,8.70
2022-12-24T22:37:03.433Z,8.70
2022-12-24T22:39:30.590Z,8.90
2022-12-24T22:42:00.592Z,8.90
2022-12-24T22:44:27.693Z,8.90
2022-12-24T22:46:55.302Z,8.70
2022-12-24T22:49:22.532Z,8.70
2022-12-24T22:51:49.572Z,8.60
2022-12-24T22:54:16.766Z,8.60
2022-12-24T22:56:43.971Z,8.50
2022-12-24T22:59:13.951Z,8.40
2022-12-24T23:01:44.590Z,8.40
2022-12-24T23:04:13.925Z,8.40
2022-12-24T23:06:41.697Z,8.40
2022-12-24T23:09:10.893Z,8.30
2022-12-24T23:11:39.710Z,8.30
2022-12-24T23:14:25.359Z,8.10
2022-12-24T23:16:52.607Z,8.10
2022-12-24T23:19:19.951Z,8.10
2022-12-24T23:21:47.082Z,8.00
2022-12-24T23:24:14.565Z,8.00
2022-12-24T23:26:42.403Z,8.00
2022-12-24T23:29:09.533Z,8.00
2022-12-24T23:31:37.804Z,8.00
2022-12-24T23:34:05.222Z,8.00
2022-12-24T23:36:32.418Z,8.00
2022-12-24T23:38:59.717Z,8.10
2022-12-24T23:41:26.782Z,8.10
2022-12-24T23:43:53.993Z,8.10
2022-12-24T23:46:21.864Z,8.30
2022-12-24T23:48:52.830Z,8.30
2022-12-24T23:51:23.682Z,8.40
2022-12-24T23:53:52.393Z,8.30
2022-12-24T23:56:20.459Z,8.30
2022-12-24T23:58:48.114Z,8.20
